Malaviya Twenty — AUEV — position and weather

sailwx.info

Track history (hours):
 
Tides and Currents Weather Stations Pressure Air Temp Water Temp Dewpoint Dewpoint Depression Visibility Wind Speed Wind Dir Waves Ship Positions

Malaviya Twenty

Last reported at 2014-Nov-21 14:19 UTC. Time now 2014-Nov-21 17:54 UTC.
Position N 53°01' E 002°14'.

Length 72 m; draft 4.8 m.

Type: Ship. MMSI: 419504000.

Date/timePositionNaut miles runAvg speedWind from/ knotsBaromVisibWave heightAir tempDewpointWater temp
2014-Nov-21 14:19N 53°01' E 002°14'1 0.8
2014-Nov-21 13:28N 53°02' E 002°14'2 1.7
2014-Nov-21 12:32N 53°00' E 002°14'2 1.3
2014-Nov-21 11:07N 53°02' E 002°14'1 0.2
2014-Nov-21 06:18N 53°03' E 002°14'0 0.0
2014-Nov-21 05:32N 53°03' E 002°14'0 0.4
2014-Nov-21 04:27N 53°03' E 002°14'2 0.6
2014-Nov-21 01:28N 53°01' E 002°14'1 0.9
2014-Nov-21 00:32N 53°02' E 002°14'10 5.0
2014-Nov-20 22:31N 52°54' E 002°03'7 7.5
2014-Nov-20 21:33N 52°49' E 001°55'9 8.5
2014-Nov-20 20:34N 52°42' E 001°47'8 7.8
2014-Nov-20 19:33N 52°34' E 001°45'1 1.3
2014-Nov-20 18:31N 52°36' E 001°44'0 0.0
2014-Nov-20 17:31N 52°36' E 001°44'0 0.0
2014-Nov-20 16:31N 52°36' E 001°44'0 0.0
2014-Nov-20 15:31N 52°36' E 001°44'0 0.0
2014-Nov-20 14:31N 52°36' E 001°44'0 0.0
2014-Nov-20 13:31N 52°36' E 001°44'0 0.0
2014-Nov-20 12:31N 52°36' E 001°44'0 0.0
2014-Nov-20 11:31N 52°36' E 001°44'1 1.3
2014-Nov-20 10:33N 52°35' E 001°45'5 5.2
2014-Nov-20 09:34N 52°40' E 001°46'7 6.9
2014-Nov-20 08:33N 52°46' E 001°52'9 8.7
2014-Nov-20 07:33N 52°53' E 002°00'13 6.2
2014-Nov-20 05:26N 53°03' E 002°14'0 0.0
2014-Nov-20 04:32N 53°03' E 002°14'11 1.8
2014-Nov-19 22:16N 53°12' E 002°03'11 0.6
2014-Nov-19 03:30N 53°03' E 002°14'8 1.9
2014-Nov-18 23:27N 52°56' E 002°07'8 9.0
2014-Nov-18 22:33N 52°51' E 001°58'9 9.3
2014-Nov-18 21:34N 52°44' E 001°48'9 9.1
2014-Nov-18 20:33N 52°35' E 001°45'1 1.4
2014-Nov-18 19:32N 52°36' E 001°44'0 0.0
2014-Nov-18 18:32N 52°36' E 001°44'0 0.0
2014-Nov-18 17:32N 52°36' E 001°44'0 0.0
2014-Nov-18 16:32N 52°36' E 001°44'0 0.0
2014-Nov-18 15:32N 52°36' E 001°44'0 0.0
2014-Nov-18 14:32N 52°36' E 001°44'0 0.0
2014-Nov-18 13:32N 52°36' E 001°44'0 0.0
2014-Nov-18 12:32N 52°36' E 001°44'0 0.0
2014-Nov-18 11:32N 52°36' E 001°44'0 0.0
2014-Nov-18 10:32N 52°36' E 001°44'0 0.0
2014-Nov-18 09:32N 52°36' E 001°44'0 0.0
2014-Nov-18 08:32N 52°36' E 001°44'0 0.0
2014-Nov-18 07:32N 52°36' E 001°44'0 0.0
2014-Nov-18 06:32N 52°36' E 001°44'0 0.0
2014-Nov-18 05:32N 52°36' E 001°44'0 0.0
2014-Nov-18 04:32N 52°36' E 001°44'0 0.0
2014-Nov-18 03:32N 52°36' E 001°44'0 0.0
2014-Nov-18 02:31N 52°36' E 001°44'0 0.0
2014-Nov-18 01:31N 52°36' E 001°44'0 0.0
2014-Nov-18 00:31N 52°36' E 001°44'0 0.0
2014-Nov-17 23:31N 52°36' E 001°44'0 0.0
2014-Nov-17 22:31N 52°36' E 001°44'0 0.0
2014-Nov-17 21:31N 52°36' E 001°44'1 1.3
2014-Nov-17 20:33N 52°34' E 001°44'4 4.2
2014-Nov-17 19:33N 52°38' E 001°46'7 6.9
2014-Nov-17 18:33N 52°45' E 001°50'9 8.7
2014-Nov-17 17:33N 52°52' E 001°59'  
2014-Nov-15 07:13N 52°60' E 002°21'4 5.9
2014-Nov-15 06:32N 53°01' E 002°14'2 2.0
2014-Nov-15 05:34N 52°59' E 002°14'13 0.4
2014-Nov-13 20:33N 52°50' E 001°57'8 7.8
2014-Nov-13 19:33N 52°44' E 001°49'9 8.9
2014-Nov-13 18:33N 52°35' E 001°46'1 1.2
2014-Nov-13 17:32N 52°35' E 001°44'0 0.0
2014-Nov-13 16:32N 52°35' E 001°44'0 0.0
2014-Nov-13 15:32N 52°35' E 001°44'0 0.0
2014-Nov-13 14:32N 52°35' E 001°44'0 0.0
2014-Nov-13 13:32N 52°35' E 001°44'0 0.0
2014-Nov-13 12:32N 52°35' E 001°44'0 0.0
2014-Nov-13 11:32N 52°35' E 001°44'0 0.0
2014-Nov-13 10:32N 52°35' E 001°44'1 0.9
2014-Nov-13 09:34N 52°35' E 001°44'2 2.3
2014-Nov-13 08:34N 52°37' E 001°46'6 6.0
2014-Nov-13 07:34N 52°43' E 001°46'8 7.6
2014-Nov-13 06:33N 52°49' E 001°40'8 7.7
2014-Nov-13 05:34N 52°56' E 001°34'7 7.3
2014-Nov-13 04:33N 53°02' E 001°28'8 7.7
2014-Nov-13 03:33N 53°10' E 001°28'26 0.8
2014-Nov-11 17:19N 52°55' E 002°04'7 8.8
2014-Nov-11 16:32N 52°50' E 001°56'9 9.1
2014-Nov-11 15:33N 52°43' E 001°48'9 8.7
2014-Nov-11 14:33N 52°34' E 001°44'  
Track history (hours):
 
Tides and Currents Weather Stations Pressure Air Temp Water Temp Dewpoint Dewpoint Depression Visibility Wind Speed Wind Dir Waves Ship Positions

Malaviya Twenty

Last reported at 2014-Nov-21 14:19 UTC. Time now 2014-Nov-21 17:54 UTC.
Position N 53°01' E 002°14'.

Length 72 m; draft 4.8 m.

Type: Ship. MMSI: 419504000.

Date/timePositionNaut miles runAvg speedWind from/ knotsBaromVisibWave heightAir tempDewpointWater temp
2014-Nov-21 14:19N 53°01' E 002°14'1 0.8
2014-Nov-21 13:28N 53°02' E 002°14'2 1.7
2014-Nov-21 12:32N 53°00' E 002°14'2 1.3
2014-Nov-21 11:07N 53°02' E 002°14'1 0.2
2014-Nov-21 06:18N 53°03' E 002°14'0 0.0
2014-Nov-21 05:32N 53°03' E 002°14'0 0.4
2014-Nov-21 04:27N 53°03' E 002°14'2 0.6
2014-Nov-21 01:28N 53°01' E 002°14'1 0.9
2014-Nov-21 00:32N 53°02' E 002°14'10 5.0
2014-Nov-20 22:31N 52°54' E 002°03'7 7.5
2014-Nov-20 21:33N 52°49' E 001°55'9 8.5
2014-Nov-20 20:34N 52°42' E 001°47'8 7.8
2014-Nov-20 19:33N 52°34' E 001°45'1 1.3
2014-Nov-20 18:31N 52°36' E 001°44'0 0.0
2014-Nov-20 17:31N 52°36' E 001°44'0 0.0
2014-Nov-20 16:31N 52°36' E 001°44'0 0.0
2014-Nov-20 15:31N 52°36' E 001°44'0 0.0
2014-Nov-20 14:31N 52°36' E 001°44'0 0.0
2014-Nov-20 13:31N 52°36' E 001°44'0 0.0
2014-Nov-20 12:31N 52°36' E 001°44'0 0.0
2014-Nov-20 11:31N 52°36' E 001°44'1 1.3
2014-Nov-20 10:33N 52°35' E 001°45'5 5.2
2014-Nov-20 09:34N 52°40' E 001°46'7 6.9
2014-Nov-20 08:33N 52°46' E 001°52'9 8.7
2014-Nov-20 07:33N 52°53' E 002°00'13 6.2
2014-Nov-20 05:26N 53°03' E 002°14'0 0.0
2014-Nov-20 04:32N 53°03' E 002°14'11 1.8
2014-Nov-19 22:16N 53°12' E 002°03'11 0.6
2014-Nov-19 03:30N 53°03' E 002°14'8 1.9
2014-Nov-18 23:27N 52°56' E 002°07'8 9.0
2014-Nov-18 22:33N 52°51' E 001°58'9 9.3
2014-Nov-18 21:34N 52°44' E 001°48'9 9.1
2014-Nov-18 20:33N 52°35' E 001°45'1 1.4
2014-Nov-18 19:32N 52°36' E 001°44'0 0.0
2014-Nov-18 18:32N 52°36' E 001°44'0 0.0
2014-Nov-18 17:32N 52°36' E 001°44'0 0.0
2014-Nov-18 16:32N 52°36' E 001°44'0 0.0
2014-Nov-18 15:32N 52°36' E 001°44'0 0.0
2014-Nov-18 14:32N 52°36' E 001°44'0 0.0
2014-Nov-18 13:32N 52°36' E 001°44'0 0.0
2014-Nov-18 12:32N 52°36' E 001°44'0 0.0
2014-Nov-18 11:32N 52°36' E 001°44'0 0.0
2014-Nov-18 10:32N 52°36' E 001°44'0 0.0
2014-Nov-18 09:32N 52°36' E 001°44'0 0.0
2014-Nov-18 08:32N 52°36' E 001°44'0 0.0
2014-Nov-18 07:32N 52°36' E 001°44'0 0.0
2014-Nov-18 06:32N 52°36' E 001°44'0 0.0
2014-Nov-18 05:32N 52°36' E 001°44'0 0.0
2014-Nov-18 04:32N 52°36' E 001°44'0 0.0
2014-Nov-18 03:32N 52°36' E 001°44'0 0.0
2014-Nov-18 02:31N 52°36' E 001°44'0 0.0
2014-Nov-18 01:31N 52°36' E 001°44'0 0.0
2014-Nov-18 00:31N 52°36' E 001°44'0 0.0
2014-Nov-17 23:31N 52°36' E 001°44'0 0.0
2014-Nov-17 22:31N 52°36' E 001°44'0 0.0
2014-Nov-17 21:31N 52°36' E 001°44'1 1.3
2014-Nov-17 20:33N 52°34' E 001°44'4 4.2
2014-Nov-17 19:33N 52°38' E 001°46'7 6.9
2014-Nov-17 18:33N 52°45' E 001°50'9 8.7
2014-Nov-17 17:33N 52°52' E 001°59'  
2014-Nov-15 07:13N 52°60' E 002°21'4 5.9
2014-Nov-15 06:32N 53°01' E 002°14'2 2.0
2014-Nov-15 05:34N 52°59' E 002°14'13 0.4
2014-Nov-13 20:33N 52°50' E 001°57'8 7.8
2014-Nov-13 19:33N 52°44' E 001°49'9 8.9
2014-Nov-13 18:33N 52°35' E 001°46'1 1.2
2014-Nov-13 17:32N 52°35' E 001°44'0 0.0
2014-Nov-13 16:32N 52°35' E 001°44'0 0.0
2014-Nov-13 15:32N 52°35' E 001°44'0 0.0
2014-Nov-13 14:32N 52°35' E 001°44'0 0.0
2014-Nov-13 13:32N 52°35' E 001°44'0 0.0
2014-Nov-13 12:32N 52°35' E 001°44'0 0.0
2014-Nov-13 11:32N 52°35' E 001°44'0 0.0
2014-Nov-13 10:32N 52°35' E 001°44'1 0.9
2014-Nov-13 09:34N 52°35' E 001°44'2 2.3
2014-Nov-13 08:34N 52°37' E 001°46'6 6.0
2014-Nov-13 07:34N 52°43' E 001°46'8 7.6
2014-Nov-13 06:33N 52°49' E 001°40'8 7.7
2014-Nov-13 05:34N 52°56' E 001°34'7 7.3
2014-Nov-13 04:33N 53°02' E 001°28'8 7.7
2014-Nov-13 03:33N 53°10' E 001°28'26 0.8
2014-Nov-11 17:19N 52°55' E 002°04'7 8.8
2014-Nov-11 16:32N 52°50' E 001°56'9 9.1
2014-Nov-11 15:33N 52°43' E 001°48'9 8.7
2014-Nov-11 14:33N 52°34' E 001°44'  

Dump ship's entire track history